createdAt,value
2018-12-01T00:00:18.067Z,9.00
2018-12-01T00:02:46.353Z,9.10
2018-12-01T00:05:14.655Z,9.20
2018-12-01T00:07:42.899Z,9.20
2018-12-01T00:10:11.210Z,9.20
2018-12-01T00:12:39.544Z,9.20
2018-12-01T00:15:09.679Z,9.20
2018-12-01T00:17:37.978Z,9.20
2018-12-01T00:20:10.985Z,9.30
2018-12-01T00:22:39.229Z,9.10
2018-12-01T00:25:08.401Z,9.10
2018-12-01T00:27:36.650Z,8.90
2018-12-01T00:30:09.128Z,8.80
2018-12-01T00:32:37.484Z,8.90
2018-12-01T00:35:06.493Z,8.80
2018-12-01T00:37:34.767Z,8.70
2018-12-01T00:40:03.053Z,8.80
2018-12-01T00:42:31.353Z,8.70
2018-12-01T00:44:59.636Z,8.70
2018-12-01T00:47:27.875Z,8.70
2018-12-01T00:49:56.138Z,8.60
2018-12-01T00:52:24.402Z,8.60
2018-12-01T00:54:52.742Z,8.60
2018-12-01T00:57:20.966Z,8.60
2018-12-01T00:59:49.210Z,8.60
2018-12-01T01:02:22.951Z,8.60
2018-12-01T01:04:51.225Z,8.50
2018-12-01T01:07:19.501Z,8.60
2018-12-01T01:09:47.798Z,8.60
2018-12-01T01:12:16.035Z,8.70
2018-12-01T01:14:44.296Z,8.60
2018-12-01T01:17:12.598Z,8.50
2018-12-01T01:19:40.866Z,8.60
2018-12-01T01:22:09.140Z,8.50
2018-12-01T01:24:37.413Z,8.50
2018-12-01T01:27:05.999Z,8.50
2018-12-01T01:29:34.462Z,8.40
2018-12-01T01:32:02.687Z,8.50
2018-12-01T01:34:30.943Z,8.50
2018-12-01T01:36:59.221Z,8.50
2018-12-01T01:39:27.493Z,8.60
2018-12-01T01:41:55.764Z,8.50
2018-12-01T01:44:24.030Z,8.50
2018-12-01T01:46:52.277Z,8.50
2018-12-01T01:49:20.481Z,8.50
2018-12-01T01:51:48.769Z,8.50
2018-12-01T01:54:17.065Z,8.50
2018-12-01T01:56:45.350Z,8.60
2018-12-01T01:59:13.605Z,8.70
2018-12-01T02:01:41.806Z,8.80
2018-12-01T02:04:10.060Z,8.70
2018-12-01T02:06:38.435Z,8.80
2018-12-01T02:09:08.110Z,8.80
2018-12-01T02:11:36.392Z,8.90
2018-12-01T02:14:04.693Z,8.90
2018-12-01T02:16:32.960Z,8.90
2018-12-01T02:19:01.198Z,8.90
2018-12-01T02:21:29.460Z,9.00
2018-12-01T02:23:57.735Z,9.00
2018-12-01T02:26:26.029Z,9.00
2018-12-01T02:28:54.281Z,9.00
2018-12-01T02:31:22.543Z,9.10
2018-12-01T02:33:50.789Z,9.00
2018-12-01T02:36:19.167Z,8.90
2018-12-01T02:38:47.470Z,8.80
2018-12-01T02:41:15.792Z,8.80
2018-12-01T02:43:44.118Z,8.80
2018-12-01T02:46:23.715Z,8.80
2018-12-01T02:48:52.000Z,8.70
2018-12-01T02:51:20.338Z,8.70
2018-12-01T02:53:48.598Z,8.70
2018-12-01T02:56:16.866Z,8.60
2018-12-01T02:58:45.092Z,8.60
2018-12-01T03:01:13.379Z,8.80
2018-12-01T03:03:41.649Z,8.60
2018-12-01T03:06:09.892Z,8.40
2018-12-01T03:08:38.179Z,8.30
2018-12-01T03:11:06.413Z,8.20
2018-12-01T03:13:34.866Z,8.20
2018-12-01T03:16:03.940Z,8.30
2018-12-01T03:18:32.209Z,8.20
2018-12-01T03:21:00.520Z,8.10
2018-12-01T03:23:28.783Z,8.10
2018-12-01T03:25:57.083Z,8.10
2018-12-01T03:28:25.338Z,8.10
2018-12-01T03:30:55.384Z,8.00
2018-12-01T03:33:23.616Z,8.00
2018-12-01T03:35:51.881Z,8.00
2018-12-01T03:38:20.173Z,8.00
2018-12-01T03:40:48.417Z,8.00
2018-12-01T03:43:16.896Z,8.00
2018-12-01T03:45:45.173Z,7.90
2018-12-01T03:48:13.408Z,7.80
2018-12-01T03:50:41.681Z,7.80
2018-12-01T03:53:11.142Z,7.80
2018-12-01T03:55:39.392Z,7.70
2018-12-01T03:58:07.841Z,7.70
2018-12-01T04:00:36.618Z,7.70
2018-12-01T04:03:06.275Z,7.60
2018-12-01T04:05:34.529Z,7.70
2018-12-01T04:08:02.839Z,7.60
2018-12-01T04:13:50.579Z,7.60
2018-12-01T04:16:38.821Z,7.70
2018-12-01T04:19:27.443Z,7.70
2018-12-01T04:25:30.885Z,7.70
2018-12-01T04:31:33.441Z,7.50
2018-12-01T04:34:33.487Z,7.50
2018-12-01T04:38:30.198Z,7.50
2018-12-01T04:41:09.772Z,7.40
2018-12-01T04:43:51.510Z,7.40
2018-12-01T04:46:24.937Z,7.40
2018-12-01T04:49:08.689Z,7.40
2018-12-01T04:52:20.744Z,7.30
2018-12-01T04:55:04.846Z,7.30
2018-12-01T04:58:05.623Z,7.20
2018-12-01T05:12:25.147Z,7.30
2018-12-01T05:14:54.013Z,7.30
2018-12-01T05:17:25.043Z,7.20
2018-12-01T05:19:56.482Z,7.20
2018-12-01T05:22:30.168Z,7.10
2018-12-01T05:25:03.866Z,7.10
2018-12-01T05:27:33.716Z,7.00
2018-12-01T05:30:10.596Z,6.90
2018-12-01T05:32:40.133Z,6.90
2018-12-01T05:35:12.378Z,6.80
2018-12-01T05:37:41.301Z,6.80
2018-12-01T05:40:12.152Z,6.80
2018-12-01T05:42:41.134Z,6.80
2018-12-01T05:45:17.884Z,6.80
2018-12-01T05:47:46.801Z,6.80
2018-12-01T05:50:20.647Z,6.80
2018-12-01T05:52:49.576Z,6.80
2018-12-01T05:55:18.427Z,6.80
2018-12-01T05:57:50.779Z,6.80
2018-12-01T06:00:22.508Z,6.80
2018-12-01T06:02:52.312Z,6.70
2018-12-01T06:05:24.735Z,6.70
2018-12-01T06:07:59.772Z,6.70
2018-12-01T06:10:30.084Z,6.70
2018-12-01T06:13:05.442Z,6.70
2018-12-01T06:15:34.935Z,6.80
2018-12-01T06:18:03.986Z,6.70
2018-12-01T06:20:36.140Z,6.70
2018-12-01T06:23:19.743Z,6.60
2018-12-01T06:25:53.323Z,6.50
2018-12-01T06:28:28.627Z,6.40
2018-12-01T06:30:58.601Z,6.40
2018-12-01T06:33:39.043Z,6.30
2018-12-01T06:36:09.096Z,6.40
2018-12-01T06:38:44.664Z,6.50
2018-12-01T06:41:17.802Z,6.50
2018-12-01T06:43:55.807Z,6.40
2018-12-01T06:46:25.389Z,6.40
2018-12-01T06:48:55.961Z,6.50
2018-12-01T06:51:25.463Z,6.60
2018-12-01T06:53:57.316Z,6.50
2018-12-01T06:56:29.398Z,6.50
2018-12-01T06:59:02.826Z,6.70
2018-12-01T07:01:32.083Z,6.70
2018-12-01T07:04:00.843Z,6.80
2018-12-01T07:06:30.250Z,6.80
2018-12-01T07:08:59.039Z,6.90
2018-12-01T07:11:27.979Z,6.90
2018-12-01T07:13:57.661Z,7.00
2018-12-01T07:16:26.568Z,7.00
2018-12-01T07:19:06.538Z,7.10
2018-12-01T07:21:35.159Z,7.10
2018-12-01T07:24:03.847Z,7.20
2018-12-01T07:26:32.311Z,7.10
2018-12-01T07:29:00.722Z,7.20
2018-12-01T07:31:29.283Z,7.30
2018-12-01T07:33:57.760Z,7.50
2018-12-01T07:36:26.819Z,7.50
2018-12-01T07:38:56.092Z,7.40
2018-12-01T07:41:23.725Z,7.40
2018-12-01T07:43:52.118Z,7.50
2018-12-01T07:46:20.854Z,7.50
2018-12-01T07:48:49.262Z,7.40
2018-12-01T07:51:17.582Z,7.50
2018-12-01T07:53:46.267Z,7.50
2018-12-01T07:56:14.779Z,7.60
2018-12-01T07:58:43.213Z,7.80
2018-12-01T08:01:11.698Z,7.80
2018-12-01T08:03:40.292Z,7.80
2018-12-01T08:06:08.735Z,7.80
2018-12-01T08:08:37.550Z,7.80
2018-12-01T08:11:06.134Z,7.70
2018-12-01T08:13:34.918Z,7.80
2018-12-01T08:16:03.702Z,7.90
2018-12-01T08:18:32.430Z,7.80
2018-12-01T08:21:00.922Z,7.90
2018-12-01T08:23:29.679Z,7.90
2018-12-01T08:25:58.245Z,7.90
2018-12-01T08:28:26.883Z,8.00
2018-12-01T08:30:55.650Z,8.00
2018-12-01T08:33:24.162Z,8.10
2018-12-01T08:35:53.095Z,8.10
2018-12-01T08:38:21.557Z,8.20
2018-12-01T08:40:49.916Z,8.30
2018-12-01T08:43:18.182Z,8.40
2018-12-01T08:45:46.530Z,8.50
2018-12-01T08:48:14.807Z,8.60
2018-12-01T08:50:43.113Z,8.80
2018-12-01T08:53:11.793Z,8.80
2018-12-01T08:55:40.092Z,9.00
2018-12-01T08:58:08.373Z,8.90
2018-12-01T09:00:42.061Z,8.90
2018-12-01T09:03:19.625Z,8.90
2018-12-01T09:05:48.917Z,8.90
2018-12-01T09:08:18.826Z,9.00
2018-12-01T09:10:47.641Z,9.10
2018-12-01T09:16:31.209Z,9.20
2018-12-01T09:19:10.018Z,8.90
2018-12-01T09:21:42.604Z,9.20
2018-12-01T09:24:13.567Z,9.40
2018-12-01T09:26:48.832Z,9.40
2018-12-01T09:29:41.309Z,9.30
2018-12-01T09:32:19.151Z,9.40
2018-12-01T09:35:00.458Z,9.60
2018-12-01T09:43:33.770Z,9.70
2018-12-01T09:46:14.314Z,9.70
2018-12-01T09:49:18.031Z,9.60
2018-12-01T09:54:49.912Z,9.50
2018-12-01T09:57:29.989Z,9.40
2018-12-01T10:00:08.745Z,9.50
2018-12-01T10:02:40.911Z,9.60
2018-12-01T10:05:34.706Z,9.70
2018-12-01T10:08:20.675Z,9.70
2018-12-01T10:10:56.357Z,10.00
2018-12-01T10:16:32.747Z,10.30
2018-12-01T10:19:03.921Z,10.40
2018-12-01T10:21:36.266Z,10.50
2018-12-01T10:27:14.614Z,10.80
2018-12-01T10:29:46.240Z,10.90
2018-12-01T10:32:34.031Z,10.90
2018-12-01T10:43:41.893Z,10.90
2018-12-01T10:46:18.052Z,10.90
2018-12-01T10:49:14.895Z,10.90
2018-12-01T10:51:51.756Z,10.90
2018-12-01T10:54:41.028Z,11.20
2018-12-01T10:57:09.664Z,11.20
2018-12-01T10:59:37.936Z,11.30
2018-12-01T11:02:11.783Z,11.30
2018-12-01T11:04:40.512Z,11.10
2018-12-01T11:07:08.888Z,11.20
2018-12-01T11:09:37.169Z,11.00
2018-12-01T11:12:05.461Z,10.80
2018-12-01T11:14:33.981Z,11.10
2018-12-01T11:17:02.783Z,11.20
2018-12-01T11:19:32.408Z,11.20
2018-12-01T11:22:01.200Z,10.90
2018-12-01T11:24:29.538Z,11.00
2018-12-01T11:26:57.780Z,11.40
2018-12-01T11:29:26.202Z,11.50
2018-12-01T11:31:54.552Z,11.70
2018-12-01T11:34:22.913Z,11.90
2018-12-01T11:36:51.173Z,12.00
2018-12-01T11:39:19.674Z,12.20
2018-12-01T11:41:48.237Z,12.40
2018-12-01T11:44:16.615Z,12.50
2018-12-01T11:46:45.215Z,12.60
2018-12-01T11:49:13.747Z,12.30
2018-12-01T11:51:42.449Z,12.20
2018-12-01T11:54:11.253Z,12.40
2018-12-01T11:56:40.460Z,12.40
2018-12-01T11:59:09.376Z,12.30
2018-12-01T12:01:37.909Z,12.30
2018-12-01T12:04:06.923Z,12.50
2018-12-01T12:06:37.866Z,12.50
2018-12-01T12:09:08.685Z,12.40
2018-12-01T12:11:37.557Z,12.20
2018-12-01T12:14:06.424Z,12.30
2018-12-01T12:16:35.830Z,12.10
2018-12-01T12:19:08.803Z,12.50
2018-12-01T12:21:40.561Z,12.50
2018-12-01T12:24:11.258Z,12.30
2018-12-01T12:26:40.154Z,12.20
2018-12-01T12:29:09.649Z,12.50
2018-12-01T12:31:38.682Z,12.30
2018-12-01T12:34:07.889Z,12.30
2018-12-01T12:36:37.749Z,12.40
2018-12-01T12:39:09.193Z,12.70
2018-12-01T12:41:38.302Z,12.60
2018-12-01T12:44:06.656Z,12.70
2018-12-01T12:46:35.577Z,12.80
2018-12-01T12:49:03.910Z,12.60
2018-12-01T12:51:32.356Z,12.60
2018-12-01T12:54:00.665Z,12.50
2018-12-01T12:56:29.073Z,12.50
2018-12-01T12:58:57.503Z,12.20
2018-12-01T13:01:27.071Z,11.80
2018-12-01T13:03:57.588Z,12.00
2018-12-01T13:06:27.335Z,12.00
2018-12-01T13:08:56.849Z,12.10
2018-12-01T13:11:30.775Z,12.10
2018-12-01T13:14:01.509Z,12.10
2018-12-01T13:16:31.395Z,12.10
2018-12-01T13:19:01.744Z,12.10
2018-12-01T13:21:31.601Z,12.10
2018-12-01T13:24:00.024Z,12.20
2018-12-01T13:26:28.972Z,11.80
2018-12-01T13:28:58.681Z,11.60
2018-12-01T13:31:28.354Z,11.70
2018-12-01T13:33:56.749Z,11.70
2018-12-01T13:36:25.109Z,11.70
2018-12-01T13:38:53.468Z,11.60
2018-12-01T13:41:21.807Z,11.50
2018-12-01T13:43:50.172Z,11.60
2018-12-01T13:46:19.258Z,11.40
2018-12-01T13:48:47.786Z,11.60
2018-12-01T13:51:16.240Z,11.90
2018-12-01T13:53:45.777Z,11.80
2018-12-01T13:56:20.879Z,11.80
2018-12-01T13:58:46.638Z,11.80
2018-12-01T14:01:20.617Z,11.60
2018-12-01T14:03:57.793Z,11.30
2018-12-01T14:06:32.645Z,11.40
2018-12-01T14:09:06.294Z,11.70
2018-12-01T14:11:43.210Z,11.40
2018-12-01T15:44:34.863Z,10.80
2018-12-01T15:47:56.826Z,10.90
2018-12-01T15:50:30.048Z,10.80
2018-12-01T15:56:39.587Z,10.60
2018-12-01T16:02:05.026Z,10.60
2018-12-01T16:04:33.541Z,10.50
2018-12-01T16:07:05.263Z,10.50
2018-12-01T16:09:33.812Z,10.60
2018-12-01T16:12:02.154Z,10.70
2018-12-01T16:14:30.730Z,10.60
2018-12-01T16:16:59.167Z,10.70
2018-12-01T16:19:27.455Z,10.60
2018-12-01T16:21:55.909Z,10.60
2018-12-01T16:24:24.373Z,10.60
2018-12-01T16:26:52.686Z,10.50
2018-12-01T16:29:21.017Z,10.50
2018-12-01T16:31:49.449Z,10.70
2018-12-01T16:34:17.781Z,10.60
2018-12-01T16:36:46.319Z,10.50
2018-12-01T16:39:14.544Z,10.50
2018-12-01T16:41:42.851Z,10.50
2018-12-01T16:44:11.109Z,10.40
2018-12-01T16:46:39.494Z,10.50
2018-12-01T16:49:07.974Z,10.40
2018-12-01T16:51:36.345Z,10.40
2018-12-01T16:54:04.615Z,10.30
2018-12-01T16:56:32.926Z,10.20
2018-12-01T16:59:01.278Z,10.20
2018-12-01T17:01:29.578Z,10.30
2018-12-01T17:03:57.958Z,10.30
2018-12-01T17:06:26.219Z,10.20
2018-12-01T17:08:55.860Z,10.20
2018-12-01T17:11:24.141Z,10.20
2018-12-01T17:13:52.458Z,10.30
2018-12-01T17:16:20.765Z,10.20
2018-12-01T17:18:49.042Z,10.10
2018-12-01T17:21:17.338Z,10.20
2018-12-01T17:23:45.655Z,10.00
2018-12-01T17:26:13.878Z,9.90
2018-12-01T17:28:42.156Z,10.10
2018-12-01T17:31:10.385Z,10.10
2018-12-01T17:33:38.737Z,10.10
2018-12-01T17:36:07.027Z,10.10
2018-12-01T17:38:35.321Z,10.10
2018-12-01T17:41:14.529Z,10.10
2018-12-01T17:43:47.720Z,10.00
2018-12-01T17:46:15.943Z,10.00
2018-12-01T17:48:44.275Z,10.20
2018-12-01T17:51:12.463Z,10.00
2018-12-01T17:53:41.670Z,10.00
2018-12-01T17:56:09.964Z,10.00
2018-12-01T17:58:38.225Z,9.90
2018-12-01T18:01:07.025Z,10.00
2018-12-01T18:03:35.267Z,10.00
2018-12-01T18:06:06.492Z,10.00
2018-12-01T18:08:34.857Z,10.00
2018-12-01T18:11:03.162Z,9.80
2018-12-01T18:13:31.449Z,9.70
2018-12-01T18:15:59.730Z,9.70
2018-12-01T18:18:27.962Z,9.60
2018-12-01T18:20:56.244Z,9.80
2018-12-01T18:23:24.518Z,9.90
2018-12-01T18:25:54.058Z,9.80
2018-12-01T18:28:43.138Z,9.80
2018-12-01T18:31:16.498Z,9.60
2018-12-01T18:33:46.510Z,9.70
2018-12-01T18:36:15.161Z,9.80
2018-12-01T18:38:45.392Z,9.80
2018-12-01T18:41:13.837Z,9.60
2018-12-01T18:43:42.252Z,9.70
2018-12-01T18:46:12.274Z,9.80
2018-12-01T18:48:40.511Z,9.90
2018-12-01T18:51:08.805Z,10.00
2018-12-01T18:53:37.111Z,9.90
2018-12-01T18:56:06.181Z,9.80
2018-12-01T18:58:34.550Z,9.90
2018-12-01T19:01:02.916Z,9.90
2018-12-01T19:03:33.898Z,10.00
2018-12-01T19:06:02.426Z,10.00
2018-12-01T19:08:30.775Z,9.80
2018-12-01T19:10:59.169Z,9.80
2018-12-01T19:13:27.467Z,9.70
2018-12-01T19:15:55.989Z,9.60
2018-12-01T19:18:24.275Z,9.70
2018-12-01T19:20:52.521Z,10.00
2018-12-01T19:23:20.986Z,10.00
2018-12-01T19:25:50.699Z,9.90
2018-12-01T19:28:19.019Z,9.90
2018-12-01T19:30:47.296Z,9.90
2018-12-01T19:33:17.208Z,9.80
2018-12-01T19:35:46.485Z,9.90
2018-12-01T19:38:17.406Z,9.70
2018-12-01T19:40:45.920Z,9.70
2018-12-01T19:43:14.183Z,9.80
2018-12-01T19:45:42.557Z,10.00
2018-12-01T19:48:11.036Z,10.00
2018-12-01T19:50:40.098Z,10.10
2018-12-01T19:53:09.867Z,10.00
2018-12-01T19:55:38.184Z,9.90
2018-12-01T19:58:10.660Z,10.00
2018-12-01T20:00:39.316Z,10.00
2018-12-01T20:03:10.647Z,9.90
2018-12-01T20:05:38.912Z,10.00
2018-12-01T20:08:07.974Z,9.90
2018-12-01T20:10:38.992Z,10.00
2018-12-01T20:13:13.899Z,10.10
2018-12-01T20:15:45.202Z,10.20
2018-12-01T20:18:22.815Z,10.40
2018-12-01T20:20:51.151Z,10.40
2018-12-01T20:23:20.496Z,10.30
2018-12-01T20:25:50.195Z,10.20
2018-12-01T20:28:18.516Z,10.30
2018-12-01T20:30:47.722Z,10.20
2018-12-01T20:33:16.540Z,10.30
2018-12-01T20:35:50.105Z,10.20
2018-12-01T20:38:23.102Z,10.10
2018-12-01T20:40:51.413Z,10.20
2018-12-01T20:43:19.831Z,10.20
2018-12-01T20:45:48.092Z,10.30
2018-12-01T20:48:16.397Z,10.50
2018-12-01T20:50:44.666Z,10.50
2018-12-01T20:53:13.024Z,10.40
2018-12-01T20:55:44.589Z,10.40
2018-12-01T20:58:13.013Z,10.50
2018-12-01T21:00:41.321Z,10.50
2018-12-01T21:03:09.638Z,10.60
2018-12-01T21:05:38.169Z,10.40
2018-12-01T21:08:07.511Z,10.60
2018-12-01T21:10:37.682Z,10.60
2018-12-01T21:13:06.665Z,10.40
2018-12-01T21:15:34.916Z,10.60
2018-12-01T21:18:03.250Z,10.60
2018-12-01T21:20:31.555Z,10.60
2018-12-01T21:22:59.841Z,10.40
2018-12-01T21:25:28.656Z,10.60
2018-12-01T21:27:58.651Z,10.60
2018-12-01T21:30:28.015Z,10.50
2018-12-01T21:33:03.253Z,10.40
2018-12-01T21:35:31.701Z,10.40
2018-12-01T21:38:00.106Z,10.60
2018-12-01T21:40:28.509Z,10.70
2018-12-01T21:42:56.794Z,10.70
2018-12-01T21:45:25.186Z,10.80
2018-12-01T21:47:53.580Z,10.60
2018-12-01T21:50:22.575Z,10.70
2018-12-01T21:52:55.045Z,10.90
2018-12-01T21:55:24.243Z,10.80
2018-12-01T21:57:54.018Z,10.90
2018-12-01T22:00:32.112Z,10.70
2018-12-01T22:03:02.877Z,10.80
2018-12-01T22:05:38.254Z,10.60
2018-12-01T22:08:08.231Z,10.80
2018-12-01T22:10:39.576Z,10.70
2018-12-01T22:13:28.716Z,10.80
2018-12-01T22:16:13.785Z,10.60
2018-12-01T22:19:10.917Z,10.60
2018-12-01T22:28:08.146Z,10.90
2018-12-01T22:31:17.261Z,10.80
2018-12-01T22:45:13.633Z,10.90
2018-12-01T22:52:02.063Z,10.90
2018-12-01T22:59:41.789Z,10.80
2018-12-01T23:02:24.684Z,10.90
2018-12-01T23:05:33.997Z,10.90
2018-12-01T23:08:45.302Z,10.90
2018-12-01T23:11:51.619Z,10.90
2018-12-01T23:14:37.936Z,10.90
2018-12-01T23:17:40.962Z,11.00
2018-12-01T23:20:49.302Z,11.00
2018-12-01T23:26:47.115Z,11.00
2018-12-01T23:29:21.215Z,11.10
2018-12-01T23:32:33.280Z,11.00
